createdAt,value
2023-03-05T00:00:28.376Z,5.60
2023-03-05T00:04:15.866Z,6.40
2023-03-05T00:07:39.768Z,7.10
2023-03-05T00:11:08.163Z,7.30
2023-03-05T00:14:32.044Z,7.40
2023-03-05T00:17:56.026Z,8.50
2023-03-05T00:21:26.009Z,7.90
2023-03-05T00:24:52.498Z,6.90
2023-03-05T00:28:18.645Z,8.20
2023-03-05T00:31:44.657Z,6.30
2023-03-05T00:35:10.381Z,6.10
2023-03-05T00:38:35.793Z,5.30
2023-03-05T00:42:00.253Z,6.60
2023-03-05T00:48:52.492Z,5.00
2023-03-05T00:52:17.474Z,5.40
2023-03-05T00:55:41.440Z,3.90
2023-03-05T00:59:11.460Z,5.30
2023-03-05T01:03:12.546Z,5.10
2023-03-05T01:07:10.343Z,4.70
2023-03-05T01:11:08.391Z,4.00
2023-03-05T01:15:06.779Z,4.60
2023-03-05T01:19:04.347Z,3.90
2023-03-05T01:23:02.377Z,4.50
2023-03-05T01:27:00.454Z,4.40
2023-03-05T01:30:58.359Z,4.80
2023-03-05T01:34:56.337Z,4.30
2023-03-05T01:38:54.273Z,3.30
2023-03-05T01:42:52.370Z,3.00
2023-03-05T01:46:53.276Z,4.40
2023-03-05T01:50:51.404Z,3.50
2023-03-05T01:55:06.280Z,3.20
2023-03-05T01:59:10.280Z,4.20
2023-03-05T02:03:08.280Z,3.00
2023-03-05T02:07:06.460Z,3.70
2023-03-05T02:11:08.251Z,3.40
2023-03-05T02:15:08.265Z,4.10
2023-03-05T02:19:06.344Z,4.70
2023-03-05T02:23:04.290Z,3.90
2023-03-05T02:27:02.200Z,3.90
2023-03-05T02:31:00.267Z,3.50
2023-03-05T02:34:58.352Z,3.80
2023-03-05T02:38:57.247Z,4.40
2023-03-05T02:42:56.261Z,4.30
2023-03-05T02:46:54.261Z,5.00
2023-03-05T02:50:52.183Z,6.00
2023-03-05T02:54:50.299Z,3.70
2023-03-05T02:58:48.184Z,4.70
2023-03-05T03:02:46.203Z,4.50
2023-03-05T03:06:44.240Z,4.80
2023-03-05T03:10:42.416Z,4.90
2023-03-05T03:14:40.145Z,5.00
2023-03-05T03:18:38.169Z,4.80
2023-03-05T03:22:36.255Z,6.80
2023-03-05T03:26:34.242Z,4.80
2023-03-05T03:30:32.304Z,7.60
2023-03-05T03:34:31.181Z,4.60
2023-03-05T03:38:29.189Z,4.20
2023-03-05T03:42:27.176Z,3.80
2023-03-05T03:46:25.161Z,7.20
2023-03-05T03:50:23.129Z,4.30
2023-03-05T03:54:21.088Z,4.50
2023-03-05T03:58:19.189Z,4.80
2023-03-05T04:02:17.160Z,4.70
2023-03-05T04:06:15.156Z,4.20
2023-03-05T04:10:13.036Z,4.80
2023-03-05T04:14:11.429Z,4.90
2023-03-05T04:18:10.098Z,3.60
2023-03-05T04:22:08.188Z,4.50
2023-03-05T04:26:06.183Z,3.90
2023-03-05T04:30:04.144Z,4.00
2023-03-05T04:34:02.137Z,6.10
2023-03-05T04:38:01.124Z,4.80
2023-03-05T04:41:59.107Z,3.70
2023-03-05T04:45:58.028Z,4.50
2023-03-05T04:49:55.990Z,4.80
2023-03-05T04:53:56.040Z,3.40
2023-03-05T04:57:54.093Z,4.70
2023-03-05T05:01:52.147Z,3.90
2023-03-05T05:05:50.046Z,4.10
2023-03-05T05:09:48.983Z,4.10
2023-03-05T05:13:48.013Z,4.70
2023-03-05T05:17:46.078Z,3.70
2023-03-05T05:21:43.939Z,4.20
2023-03-05T05:25:41.957Z,5.30
2023-03-05T05:29:39.917Z,5.10
2023-03-05T05:33:37.952Z,4.60
2023-03-05T05:37:35.942Z,4.90
2023-03-05T05:41:33.967Z,4.80
2023-03-05T05:45:32.087Z,4.00
2023-03-05T05:49:29.975Z,5.10
2023-03-05T05:53:27.946Z,4.40
2023-03-05T05:57:25.949Z,4.60
2023-03-05T06:01:34.967Z,5.30
2023-03-05T06:05:32.933Z,5.50
2023-03-05T06:09:30.928Z,4.90
2023-03-05T06:13:28.899Z,5.50
2023-03-05T06:17:30.743Z,6.30
2023-03-05T06:21:32.037Z,6.00
2023-03-05T06:25:29.961Z,6.30
2023-03-05T06:29:27.991Z,7.20
2023-03-05T06:33:26.879Z,6.40
2023-03-05T06:37:24.960Z,7.50
2023-03-05T06:41:26.937Z,6.30
2023-03-05T06:45:24.850Z,7.10
2023-03-05T06:49:24.971Z,6.60
2023-03-05T06:53:22.827Z,6.90
2023-03-05T06:57:20.838Z,8.40
2023-03-05T07:01:21.018Z,7.40
2023-03-05T07:05:19.789Z,6.50
2023-03-05T07:09:20.806Z,6.70
2023-03-05T07:13:18.788Z,7.30
2023-03-05T07:17:16.810Z,6.80
2023-03-05T07:21:22.795Z,6.00
2023-03-05T07:25:20.830Z,6.30
2023-03-05T07:29:18.796Z,5.50
2023-03-05T07:33:16.809Z,7.20
2023-03-05T07:37:14.759Z,6.90
2023-03-05T07:41:17.913Z,7.40
2023-03-05T07:45:15.813Z,5.70
2023-03-05T07:49:13.806Z,6.10
2023-03-05T07:53:11.763Z,5.80
2023-03-05T07:57:09.834Z,6.30
2023-03-05T08:01:07.737Z,5.40
2023-03-05T08:05:05.892Z,6.70
2023-03-05T08:09:03.721Z,5.70
2023-03-05T08:13:01.748Z,5.30
2023-03-05T08:16:59.717Z,5.90
2023-03-05T08:20:57.763Z,5.50
2023-03-05T08:24:55.683Z,3.90
2023-03-05T08:28:53.763Z,3.40
2023-03-05T08:32:51.751Z,4.10
2023-03-05T08:36:49.663Z,5.50
2023-03-05T08:40:47.745Z,3.70
2023-03-05T08:44:45.753Z,4.00
2023-03-05T08:48:44.663Z,4.10
2023-03-05T08:52:42.758Z,4.30
2023-03-05T08:56:40.669Z,4.60
2023-03-05T09:00:38.825Z,3.70
2023-03-05T09:04:36.654Z,3.80
2023-03-05T09:08:34.852Z,4.90
2023-03-05T09:12:34.704Z,3.30
2023-03-05T09:16:33.691Z,4.20
2023-03-05T09:20:31.697Z,3.40
2023-03-05T09:24:29.789Z,3.60
2023-03-05T09:28:27.644Z,3.30
2023-03-05T09:32:25.755Z,3.30
2023-03-05T09:36:33.563Z,3.40
2023-03-05T09:40:32.622Z,3.30
2023-03-05T09:45:15.620Z,2.80
2023-03-05T09:49:31.613Z,2.50
2023-03-05T09:53:32.572Z,2.70
2023-03-05T09:57:35.744Z,3.10
2023-03-05T10:01:41.535Z,3.40
2023-03-05T10:06:24.623Z,3.30
2023-03-05T10:10:31.616Z,3.00
2023-03-05T10:14:44.649Z,2.90
2023-03-05T10:19:04.535Z,3.10
2023-03-05T10:23:32.623Z,3.30
2023-03-05T10:27:54.659Z,3.70
2023-03-05T10:32:30.623Z,2.80
2023-03-05T10:36:53.508Z,3.00
2023-03-05T10:40:58.628Z,2.80
2023-03-05T10:45:03.494Z,2.70
2023-03-05T10:49:05.662Z,3.30
2023-03-05T10:53:15.524Z,3.10
2023-03-05T10:57:36.512Z,3.70
2023-03-05T11:01:37.588Z,4.10
2023-03-05T11:06:01.606Z,4.20
2023-03-05T11:10:29.449Z,3.10
2023-03-05T11:14:41.534Z,3.30
2023-03-05T11:18:41.473Z,3.80
2023-03-05T11:22:42.494Z,4.90
2023-03-05T11:26:40.436Z,5.10
2023-03-05T11:30:50.445Z,4.60
2023-03-05T11:34:48.449Z,4.20
2023-03-05T11:38:46.514Z,4.70
2023-03-05T11:42:44.419Z,6.50
2023-03-05T11:46:42.429Z,5.80
2023-03-05T11:50:44.460Z,5.90
2023-03-05T11:54:54.527Z,4.80
2023-03-05T11:59:04.370Z,4.50
2023-03-05T12:03:06.693Z,4.90
2023-03-05T12:07:16.439Z,4.30
2023-03-05T12:11:20.483Z,4.70
2023-03-05T12:15:27.429Z,5.10
2023-03-05T12:19:47.570Z,5.40
2023-03-05T12:23:59.364Z,5.30
2023-03-05T12:27:58.382Z,6.50
2023-03-05T12:31:56.317Z,4.50
2023-03-05T12:35:55.426Z,5.80
2023-03-05T12:39:59.354Z,4.40
2023-03-05T12:43:57.415Z,5.40
2023-03-05T12:47:56.430Z,5.20
2023-03-05T12:51:56.457Z,5.00
2023-03-05T12:56:27.416Z,5.60
2023-03-05T13:00:31.405Z,5.40
2023-03-05T13:04:34.159Z,5.40
2023-03-05T13:08:21.749Z,5.00
2023-03-05T13:11:51.970Z,5.60
2023-03-05T13:15:16.874Z,4.90
2023-03-05T13:18:41.998Z,4.80
2023-03-05T13:22:13.259Z,7.00
2023-03-05T13:25:37.101Z,5.90
2023-03-05T13:29:07.193Z,5.60
2023-03-05T13:32:33.931Z,5.50
2023-03-05T13:35:57.926Z,5.50
2023-03-05T13:39:26.124Z,5.80
2023-03-05T13:42:51.045Z,5.20
2023-03-05T13:46:15.130Z,6.50
2023-03-05T13:49:39.232Z,9.70
2023-03-05T13:53:21.708Z,9.40
2023-03-05T13:57:02.412Z,7.70
2023-03-05T14:00:39.997Z,8.40
2023-03-05T14:04:16.620Z,9.30
2023-03-05T14:07:42.666Z,9.70
2023-03-05T14:11:18.784Z,11.40
2023-03-05T14:14:45.636Z,11.00
2023-03-05T14:18:21.287Z,12.80
2023-03-05T14:21:50.604Z,9.50
2023-03-05T14:25:38.497Z,12.30
2023-03-05T14:29:25.255Z,11.80
2023-03-05T14:32:50.805Z,11.90
2023-03-05T14:36:15.034Z,13.20
2023-03-05T14:39:46.530Z,11.70
2023-03-05T14:43:12.132Z,11.90
2023-03-05T14:46:36.072Z,13.60
2023-03-05T14:49:59.952Z,12.40
2023-03-05T14:53:27.864Z,13.00
2023-03-05T14:56:51.899Z,12.70
2023-03-05T15:00:21.544Z,13.60
2023-03-05T15:03:45.694Z,15.10
2023-03-05T15:07:17.937Z,18.90
2023-03-05T15:10:41.915Z,18.50
2023-03-05T15:14:06.208Z,16.20
2023-03-05T15:17:43.290Z,16.90
2023-03-05T15:21:07.259Z,17.60
2023-03-05T15:24:31.177Z,16.20
2023-03-05T15:27:55.161Z,12.80
2023-03-05T15:31:19.060Z,14.20
2023-03-05T15:34:43.295Z,14.40
2023-03-05T15:38:07.488Z,14.60
2023-03-05T15:41:51.226Z,18.30
2023-03-05T15:45:49.125Z,22.90
2023-03-05T15:49:48.212Z,21.80
2023-03-05T15:53:46.087Z,17.70
2023-03-05T15:57:44.174Z,18.60
2023-03-05T16:01:43.190Z,19.70
2023-03-05T16:05:41.074Z,20.00
2023-03-05T16:09:42.107Z,18.30
2023-03-05T16:13:42.060Z,17.90
2023-03-05T16:17:40.119Z,17.10
2023-03-05T16:21:38.117Z,16.40
2023-03-05T16:25:36.001Z,15.90
2023-03-05T16:29:34.052Z,15.20
2023-03-05T16:33:31.988Z,15.70
2023-03-05T16:37:35.029Z,15.40
2023-03-05T16:41:34.009Z,14.40
2023-03-05T16:45:32.090Z,16.90
2023-03-05T16:49:29.983Z,14.70
2023-03-05T16:53:28.091Z,13.50
2023-03-05T16:57:26.133Z,14.30
2023-03-05T17:01:29.150Z,17.10
2023-03-05T17:05:26.978Z,17.20
2023-03-05T17:09:25.960Z,13.40
2023-03-05T17:13:23.996Z,13.40
2023-03-05T17:17:22.178Z,14.80
2023-03-05T17:21:20.056Z,18.00
2023-03-05T17:25:18.930Z,19.10
2023-03-05T17:29:19.027Z,18.70
2023-03-05T17:33:17.099Z,21.30
2023-03-05T17:37:14.963Z,21.10
2023-03-05T17:41:12.988Z,22.80
2023-03-05T17:45:12.081Z,21.10
2023-03-05T17:49:10.026Z,18.20
2023-03-05T17:53:09.017Z,16.80
2023-03-05T17:57:10.978Z,19.90
2023-03-05T18:01:10.918Z,16.30
2023-03-05T18:05:10.143Z,17.20
2023-03-05T18:09:07.886Z,15.60
2023-03-05T18:13:06.953Z,18.70
2023-03-05T18:17:05.994Z,17.20
2023-03-05T18:21:03.893Z,16.50
2023-03-05T18:25:01.957Z,19.10
2023-03-05T18:29:00.033Z,17.20
2023-03-05T18:32:57.915Z,21.10
2023-03-05T18:36:55.990Z,22.00
2023-03-05T18:40:54.837Z,20.60
2023-03-05T18:44:53.915Z,19.90
2023-03-05T18:48:51.869Z,21.50
2023-03-05T18:52:50.018Z,23.30
2023-03-05T18:56:48.846Z,26.70
2023-03-05T19:00:48.879Z,27.10
2023-03-05T19:04:46.956Z,28.00
2023-03-05T19:08:44.855Z,25.70
2023-03-05T19:13:29.830Z,24.30
2023-03-05T19:17:27.906Z,26.50
2023-03-05T19:21:25.791Z,26.60
2023-03-05T19:25:24.821Z,24.20
2023-03-05T19:29:23.878Z,24.60
2023-03-05T19:33:24.077Z,22.10
2023-03-05T19:37:22.814Z,22.50
2023-03-05T19:41:24.787Z,24.80
2023-03-05T19:45:23.912Z,29.60
2023-03-05T19:49:21.773Z,29.20
2023-03-05T19:53:19.741Z,28.20
2023-03-05T19:57:17.823Z,25.40
2023-03-05T20:01:26.869Z,22.90
2023-03-05T20:05:24.843Z,23.30
2023-03-05T20:09:22.814Z,23.90
2023-03-05T20:13:20.715Z,25.10
2023-03-05T20:17:19.706Z,24.10
2023-03-05T20:21:17.744Z,26.50
2023-03-05T20:25:15.683Z,25.80
2023-03-05T20:29:16.878Z,28.20
2023-03-05T20:33:15.662Z,29.20
2023-03-05T20:37:14.757Z,25.60
2023-03-05T20:41:43.946Z,25.60
2023-03-05T20:45:41.700Z,26.50
2023-03-05T20:49:39.663Z,25.60
2023-03-05T20:53:38.650Z,22.80
2023-03-05T20:57:36.764Z,27.70
2023-03-05T21:01:34.710Z,31.30
2023-03-05T21:05:33.698Z,27.20
2023-03-05T21:09:34.652Z,25.10
2023-03-05T21:13:34.625Z,23.30
2023-03-05T21:17:32.698Z,23.60
2023-03-05T21:21:31.730Z,23.70
2023-03-05T21:25:32.677Z,27.60
2023-03-05T21:29:31.652Z,25.00
2023-03-05T21:33:34.603Z,23.50
2023-03-05T21:37:32.633Z,27.20
2023-03-05T21:41:30.735Z,26.90
2023-03-05T21:45:34.571Z,27.90
2023-03-05T21:49:32.596Z,25.20
2023-03-05T21:53:32.556Z,25.90
2023-03-05T21:57:30.567Z,27.50
2023-03-05T22:01:32.583Z,29.00
2023-03-05T22:05:30.557Z,26.10
2023-03-05T22:09:28.515Z,28.10
2023-03-05T22:13:27.546Z,31.60
2023-03-05T22:17:25.516Z,31.80
2023-03-05T22:21:32.515Z,30.50
2023-03-05T22:25:30.512Z,28.80
2023-03-05T22:29:28.562Z,27.60
2023-03-05T22:33:26.489Z,26.70
2023-03-05T22:37:24.484Z,25.40
2023-03-05T22:41:26.463Z,28.80
2023-03-05T22:45:25.481Z,27.20
2023-03-05T22:49:25.504Z,26.80
2023-03-05T22:53:23.478Z,25.80
2023-03-05T22:57:21.492Z,25.80
2023-03-05T23:01:27.438Z,28.70
2023-03-05T23:05:26.453Z,24.80
2023-03-05T23:09:24.467Z,26.40
2023-03-05T23:13:22.432Z,25.60
2023-03-05T23:17:20.451Z,24.30
2023-03-05T23:21:18.452Z,25.80
2023-03-05T23:25:16.451Z,26.80
2023-03-05T23:29:14.424Z,24.80
2023-03-05T23:33:27.533Z,25.50
2023-03-05T23:37:25.415Z,25.30
2023-03-05T23:41:24.442Z,24.40
2023-03-05T23:45:24.376Z,25.30
2023-03-05T23:49:22.472Z,25.40
2023-03-05T23:53:21.349Z,25.70
2023-03-05T23:57:19.405Z,23.20
